TOURFACTS.DK  
Stats and Facts from Tour de France.

Tour de France 2018 starts in 12 days
  Riders   Stages   Teams   Summits   Yearly  


 
Search by year

After 2017 - Stage 21:
 14824 starters.
  5132 different riders.
  639 teams.
  2232 stages.
  456 restdays.
  439589.60 km.
  5653 abandonnees.


Top 3
GC
Christopher Froome86:20:55
Rigoberto Urán86:21:49
Romain Bardet86:23:15
Climb
Warren Barguil169 pt.
Primoz Roglic80 pt.
Thomas De Gendt64 pt.
Sprint
Michael Matthews359 pt.
André Greipel234 pt.
Edvald Boasson Hagen220 pt.
Youth
Simon Yates86:27:09
Louis Meintjes86:29:15
Emanuel Buchmann86:54:16
Facts from Tour de France 1949
  |   Stages.  |   Stage winners.  |   Days in yellow  |   Average speed.  |   Route.  |   Teams.  |   All riders.  |   Rookies.  |  

  |   Withdrawls.  |   GC.  |   Polka  |   Green  |   White  |   Summits. (In tour)  |   Miscellaneous.  |  

Stage 6 on 05 - 07 - 1949
         Owning:    Jacques Marinelli    
Pick a stage:  1 2 3 4 5 6 7 8 9 10 11 12 13 14 15 16 17 18 19 20 21
  Saint-MaloLes Sables-d´Olonne | Dist: 305.00 km.

Average speed for all riders in stage:  34,979 km./hr.
    Place:Name:Team:Time:Km/h:
ITAAdolphe DeleddaFRASouth-East08:39:07  +  00:00:00=35,252 
2 NEDHenk de HoogNLDHolland08:39:07  +  00:00:00=35,252 
BELStan OckersBELBelgium08:39:20  +  00:00:13=35,237 
SUIFerdi KüblerCHESwitzerland08:39:22  +  00:00:15=35,235 
5 ITAGino BartaliITAItaly08:39:22  +  00:00:15=35,235 
6 FRAJean RobicFRAWest-North08:39:22  +  00:00:15=35,235 
7 ITAGino SciardisITAItaly08:39:22  +  00:00:15=35,235 
8 FRARoger Le NizerhyFRAWest-North08:39:22  +  00:00:15=35,235 
9 BELRik Van SteenbergenBELBelgium08:39:22  +  00:00:15=35,235 
10 BELMarcel KintBELBelgium08:39:22  +  00:00:15=35,235 
11 BELMarcel HendrickxBELAiglons Belges08:39:22  +  00:00:15=35,235 
12 LUXMarcel ErnzerLUXLuxembourg08:39:22  +  00:00:15=35,235 
13 FRAAndré BruléFRAIle De France08:39:22  +  00:00:15=35,235 
14 ITASylvio PedroniITACadetti Italiens08:39:22  +  00:00:15=35,235 
15 FRAJean ReyFRASouth-East08:39:22  +  00:00:15=35,235 
16 BELJacques GeusBELAiglons Belges08:39:22  +  00:00:15=35,235 
17 FRAGeorges MartinFRASouth-East08:39:22  +  00:00:15=35,235 
18 ITAAlfredo MartiniITACadetti Italiens08:39:22  +  00:00:15=35,235 
19 FRALucien TeisseireFRAFrance08:39:22  +  00:00:15=35,235 
20 BELFlorent MathieuBELBelgium08:39:22  +  00:00:15=35,235 
21 FRALouis CaputFRAIle De France08:39:22  +  00:00:15=35,235 
22 BELBriek SchotteBELBelgium08:39:22  +  00:00:15=35,235 
23 BELRaymond ImpanisBELBelgium08:39:22  +  00:00:15=35,235 
24 FRALouis DeprezFRAFrance08:39:22  +  00:00:15=35,235 
25 LUXJean KirchenLUXLuxembourg08:39:22  +  00:00:15=35,235 
26 FRAJacques MarinelliFRAIle De France08:39:22  +  00:00:15=35,235 
27 ITAVittorio MagniITACadetti Italiens08:39:22  +  00:00:15=35,235 
28 ITAFausto CoppiITAItaly08:39:22  +  00:00:15=35,235 
29 ITAFermo CamelliniFRASouth-East08:39:22  +  00:00:15=35,235 
30 BELJoseph VerhaertBELAiglons Belges08:39:22  +  00:00:15=35,235 
31 FRAPaul GiguetFRASouth-East08:39:22  +  00:00:15=35,235 
32 BELRoger LambrechtBELBelgium08:39:22  +  00:00:15=35,235 
33 FRARaymond LucasFRAIle De France08:39:22  +  00:00:15=35,235 
34 FRARobert ChapatteFRAFrance08:39:22  +  00:00:15=35,235 
35 FRAGuy LapébieFRAFrance08:39:22  +  00:00:15=35,235 
36 ITAVincenzo RosselloITAItaly08:39:22  +  00:00:15=35,235 
37 BELDésiré KeteleerBELBelgium08:39:22  +  00:00:15=35,235 
38 ITAArmando PeverelliITACadetti Italiens08:39:22  +  00:00:15=35,235 
39 BELMarcel De MulderBELAiglons Belges08:39:22  +  00:00:15=35,235 
40 BELMarcel DupontBELAiglons Belges08:39:22  +  00:00:15=35,235 
41 FRARoger LevequeFRACenter-South West08:39:22  +  00:00:15=35,235 
42 FRARaphaël GeminianiFRAFrance08:39:22  +  00:00:15=35,235 
43 FRARobert DesbatsFRACenter-South West08:39:22  +  00:00:15=35,235 
44 ITAGiuseppe TaccaFRAIle De France08:39:22  +  00:00:15=35,235 
45 FRAPierre CoganFRAWest-North08:39:22  +  00:00:15=35,235 
46 FRAJean-Marie GoasmatFRAWest-North08:39:22  +  00:00:15=35,235 
47 BELEdward Van DijckBELBelgium08:39:22  +  00:00:15=35,235 
48 ITAEttore MilanoITAItaly08:39:22  +  00:00:15=35,235 
49 FRARené ViettoFRAFrance08:39:22  +  00:00:15=35,235 
50 ITAÉdouard FachleitnerFRASouth-East08:39:22  +  00:00:15=35,235 
51 LUXJean DiederichLUXLuxembourg08:39:22  +  00:00:15=35,235 
52 ITAGiovanni CorrieriITAItaly08:39:22  +  00:00:15=35,235 
53 LUXJean GoldschmitLUXLuxembourg08:39:22  +  00:00:15=35,235 
54 ITAAngelo BrignoleITAItaly08:39:22  +  00:00:15=35,235 
55 ITASerifano BiagioniITAItaly08:39:22  +  00:00:15=35,235 
56 FRAJean-Apotre LazaridesFRAFrance08:39:22  +  00:00:15=35,235 
57 SUIGeorges AeschlimannCHESwitzerland08:39:22  +  00:00:15=35,235 
58 NEDWim De RuyterNLDHolland08:39:52  +  00:00:45=35,201 
59 FRAHenri MassalFRACenter-South West08:40:11  +  00:01:04=35,180 
60 ITALuciano PezziITAItaly08:41:36  +  00:02:29=35,084 
61 FRAEdouard MullerFRAIle De France08:43:21  +  00:04:14=34,967 
62 SUIRoger AeschlimannCHESwitzerland08:43:21  +  00:04:14=34,967 
63 FRAGeorges RamouluxFRACenter-South West08:43:21  +  00:04:14=34,967 
64 ITAMario RicciITAItaly08:43:21  +  00:04:14=34,967 
65 SUIPierre BrambillaFRASouth-East08:43:21  +  00:04:14=34,967 
66 FRAAntonin RollandFRASouth-East08:46:45  +  00:07:38=34,741 
67 FRAPaul PineauFRACenter-South West08:46:45  +  00:07:38=34,741 
68 FRALouison BobetFRAFrance08:46:45  +  00:07:38=34,741 
69 BELNorbert CallensBELBelgium08:46:45  +  00:07:38=34,741 
70 FRAEmile IdéeFRAIle De France08:46:45  +  00:07:38=34,741 
71 FRABernard GauthierFRAFrance08:46:45  +  00:07:38=34,741 
72 FRALucien LazaridesFRAFrance08:46:45  +  00:07:38=34,741 
73 SUIGottfried WeilenmannCHESwitzerland08:46:45  +  00:07:38=34,741 
74 MARCustodio Dos ReisFRACenter-South West08:49:27  +  00:10:20=34,564 
75 FRAAndre MahéFRAWest-North08:49:27  +  00:10:20=34,564 
76 GERCésar MarcelakFRAWest-North08:52:52  +  00:13:45=34,343 
77 FRACamille DanguillaumeFRAFrance08:52:52  +  00:13:45=34,343 
78 FRAMaurice DiotFRAFrance08:52:52  +  00:13:45=34,343 
79 ITANello LaurediFRASouth-East08:52:52  +  00:13:45=34,343 
80 FRAAnge Le StratFRAWest-North08:52:52  +  00:13:45=34,343 
81 ITAGuido De SantiITAItaly08:52:52  +  00:13:45=34,343 
82 ITAGiuseppe AusendaITACadetti Italiens08:52:52  +  00:13:45=34,343 
83 BELRoger GhyselinckBELBelgium08:52:52  +  00:13:45=34,343 
84 FRAAlbert DolhatsFRACenter-South West08:52:52  +  00:13:45=34,343 
85 ITABruno PasquiniITAItaly08:52:52  +  00:13:45=34,343 
86 NEDFrans PauwelsNLDHolland09:01:33  +  00:22:26=33,792 
87 FRAMarcel DussaultFRACenter-South West09:09:45  +  00:30:38=33,288 
88 FRAJean BlancFRACenter-South West09:23:53  +  00:44:46=32,454 

Withdrawls: 4
 
Rider
Team
Reason
39  SUIHans HutmacherCHESwitzerlandDid not finish
41  SUIErnst StettlerCHESwitzerlandDid not finish
54  NEDHuub SijenNLDHollandDid not finish
60  ESPJosé SerraESPSpainDid not finish

Todays birthdays.

1875  Jules Sales
1888  Leon Lannoy
1922  Henri Surbatis
1932  Ferdinand Devèze
1939  Dieter Puschel
1961  Gerhard Zadrobilek
1964  Javier Duch
1965  Clarence Knickman
1968  Michael Sandstød
1986  Simon Spilak




Visits: